sensor_id;sensor_type;location;lat;lon;timestamp;P1;durP1;ratioP1;P2;durP2;ratioP2
50309;SDS011;36207;51.850;21.698;2022-08-04T00:01:04;9.10;;;5.90;;
50309;SDS011;36207;51.850;21.698;2022-08-04T00:03:40;10.00;;;5.90;;
50309;SDS011;36207;51.850;21.698;2022-08-04T00:06:13;9.10;;;5.90;;
50309;SDS011;36207;51.850;21.698;2022-08-04T00:08:58;7.80;;;5.80;;
50309;SDS011;36207;51.850;21.698;2022-08-04T00:11:31;10.70;;;5.70;;
50309;SDS011;36207;51.850;21.698;2022-08-04T00:14:02;10.70;;;6.00;;
50309;SDS011;36207;51.850;21.698;2022-08-04T00:16:37;6.90;;;5.70;;
50309;SDS011;36207;51.850;21.698;2022-08-04T00:19:09;11.20;;;5.60;;
50309;SDS011;36207;51.850;21.698;2022-08-04T00:21:54;11.10;;;5.80;;
50309;SDS011;36207;51.850;21.698;2022-08-04T00:24:24;6.50;;;5.50;;
50309;SDS011;36207;51.850;21.698;2022-08-04T00:26:52;8.80;;;5.80;;
50309;SDS011;36207;51.850;21.698;2022-08-04T00:29:19;9.50;;;5.80;;
50309;SDS011;36207;51.850;21.698;2022-08-04T00:31:47;7.20;;;5.80;;
50309;SDS011;36207;51.850;21.698;2022-08-04T00:34:14;7.30;;;5.60;;
50309;SDS011;36207;51.850;21.698;2022-08-04T00:36:44;9.80;;;5.40;;
50309;SDS011;36207;51.850;21.698;2022-08-04T00:39:12;7.40;;;5.60;;
50309;SDS011;36207;51.850;21.698;2022-08-04T00:41:56;9.20;;;5.60;;
50309;SDS011;36207;51.850;21.698;2022-08-04T00:44:56;8.70;;;6.00;;
50309;SDS011;36207;51.850;21.698;2022-08-04T00:50:26;8.70;;;5.60;;
50309;SDS011;36207;51.850;21.698;2022-08-04T01:01:28;8.20;;;5.80;;
50309;SDS011;36207;51.850;21.698;2022-08-04T01:07:02;6.50;;;5.50;;
50309;SDS011;36207;51.850;21.698;2022-08-04T01:18:05;6.80;;;5.60;;
50309;SDS011;36207;51.850;21.698;2022-08-04T01:29:21;7.40;;;5.30;;
50309;SDS011;36207;51.850;21.698;2022-08-04T01:34:28;8.40;;;5.70;;
50309;SDS011;36207;51.850;21.698;2022-08-04T01:37:18;9.80;;;5.50;;
50309;SDS011;36207;51.850;21.698;2022-08-04T01:39:54;7.50;;;5.90;;
50309;SDS011;36207;51.850;21.698;2022-08-04T01:42:27;9.50;;;5.40;;
50309;SDS011;36207;51.850;21.698;2022-08-04T01:44:57;9.00;;;5.40;;
50309;SDS011;36207;51.850;21.698;2022-08-04T01:47:27;7.10;;;5.40;;
50309;SDS011;36207;51.850;21.698;2022-08-04T01:49:57;8.40;;;5.30;;
50309;SDS011;36207;51.850;21.698;2022-08-04T01:52:36;8.30;;;5.70;;
50309;SDS011;36207;51.850;21.698;2022-08-04T01:55:05;6.90;;;5.40;;
50309;SDS011;36207;51.850;21.698;2022-08-04T01:57:41;11.50;;;5.70;;
50309;SDS011;36207;51.850;21.698;2022-08-04T02:00:11;7.10;;;5.50;;
50309;SDS011;36207;51.850;21.698;2022-08-04T02:02:39;6.50;;;5.40;;
50309;SDS011;36207;51.850;21.698;2022-08-04T02:05:08;7.60;;;5.50;;
50309;SDS011;36207;51.850;21.698;2022-08-04T02:16:07;8.10;;;5.20;;
50309;SDS011;36207;51.850;21.698;2022-08-04T02:21:38;10.60;;;5.60;;
50309;SDS011;36207;51.850;21.698;2022-08-04T02:24:07;8.00;;;5.60;;
50309;SDS011;36207;51.850;21.698;2022-08-04T02:26:37;7.50;;;6.00;;
50309;SDS011;36207;51.850;21.698;2022-08-04T02:34:27;6.80;;;5.30;;
50309;SDS011;36207;51.850;21.698;2022-08-04T02:36:57;8.30;;;5.90;;
50309;SDS011;36207;51.850;21.698;2022-08-04T02:39:27;7.40;;;6.10;;
50309;SDS011;36207;51.850;21.698;2022-08-04T02:44:27;9.80;;;6.40;;
50309;SDS011;36207;51.850;21.698;2022-08-04T02:46:57;8.90;;;6.40;;
50309;SDS011;36207;51.850;21.698;2022-08-04T02:49:25;8.50;;;6.30;;
50309;SDS011;36207;51.850;21.698;2022-08-04T02:51:54;13.50;;;6.00;;
50309;SDS011;36207;51.850;21.698;2022-08-04T02:54:31;10.60;;;6.30;;
50309;SDS011;36207;51.850;21.698;2022-08-04T02:57:02;8.50;;;6.00;;
50309;SDS011;36207;51.850;21.698;2022-08-04T02:59:47;8.10;;;6.00;;
50309;SDS011;36207;51.850;21.698;2022-08-04T03:02:26;7.60;;;6.00;;
50309;SDS011;36207;51.850;21.698;2022-08-04T03:05:02;9.10;;;6.20;;
50309;SDS011;36207;51.850;21.698;2022-08-04T03:07:50;10.10;;;6.00;;
50309;SDS011;36207;51.850;21.698;2022-08-04T03:19:41;12.10;;;6.70;;
50309;SDS011;36207;51.850;21.698;2022-08-04T03:41:53;10.30;;;7.00;;
50309;SDS011;36207;51.850;21.698;2022-08-04T03:50:10;9.90;;;6.70;;
50309;SDS011;36207;51.850;21.698;2022-08-04T03:52:55;12.00;;;6.80;;
50309;SDS011;36207;51.850;21.698;2022-08-04T04:02:33;9.60;;;6.70;;
50309;SDS011;36207;51.850;21.698;2022-08-04T04:05:33;9.80;;;7.30;;
50309;SDS011;36207;51.850;21.698;2022-08-04T04:08:26;10.60;;;7.10;;
50309;SDS011;36207;51.850;21.698;2022-08-04T04:17:20;14.20;;;6.90;;
50309;SDS011;36207;51.850;21.698;2022-08-04T04:36:18;11.50;;;6.90;;
50309;SDS011;36207;51.850;21.698;2022-08-04T04:41:23;10.10;;;7.30;;
50309;SDS011;36207;51.850;21.698;2022-08-04T04:49:43;9.70;;;7.10;;
50309;SDS011;36207;51.850;21.698;2022-08-04T04:55:16;11.80;;;7.50;;
50309;SDS011;36207;51.850;21.698;2022-08-04T04:57:47;11.40;;;7.40;;
50309;SDS011;36207;51.850;21.698;2022-08-04T05:00:17;8.50;;;7.20;;
50309;SDS011;36207;51.850;21.698;2022-08-04T05:13:31;9.70;;;7.50;;
50309;SDS011;36207;51.850;21.698;2022-08-04T05:16:34;10.70;;;7.40;;
50309;SDS011;36207;51.850;21.698;2022-08-04T05:22:00;10.60;;;7.70;;
50309;SDS011;36207;51.850;21.698;2022-08-04T05:24:31;11.40;;;7.50;;
50309;SDS011;36207;51.850;21.698;2022-08-04T05:27:04;11.00;;;7.30;;
50309;SDS011;36207;51.850;21.698;2022-08-04T05:29:40;10.20;;;7.30;;
50309;SDS011;36207;51.850;21.698;2022-08-04T05:32:17;15.00;;;7.60;;
50309;SDS011;36207;51.850;21.698;2022-08-04T05:34:51;11.80;;;8.10;;
50309;SDS011;36207;51.850;21.698;2022-08-04T05:37:26;11.00;;;8.00;;
50309;SDS011;36207;51.850;21.698;2022-08-04T05:39:56;11.40;;;8.20;;
50309;SDS011;36207;51.850;21.698;2022-08-04T05:42:25;12.00;;;7.70;;
50309;SDS011;36207;51.850;21.698;2022-08-04T05:44:53;12.10;;;7.60;;
50309;SDS011;36207;51.850;21.698;2022-08-04T05:47:21;11.60;;;8.00;;
50309;SDS011;36207;51.850;21.698;2022-08-04T05:49:49;10.20;;;7.90;;
50309;SDS011;36207;51.850;21.698;2022-08-04T05:52:17;9.30;;;6.90;;
50309;SDS011;36207;51.850;21.698;2022-08-04T05:54:44;11.00;;;7.00;;
50309;SDS011;36207;51.850;21.698;2022-08-04T05:57:12;9.20;;;6.90;;
50309;SDS011;36207;51.850;21.698;2022-08-04T05:59:40;10.80;;;6.70;;
50309;SDS011;36207;51.850;21.698;2022-08-04T06:02:12;9.60;;;7.10;;
50309;SDS011;36207;51.850;21.698;2022-08-04T06:04:42;10.10;;;6.80;;
50309;SDS011;36207;51.850;21.698;2022-08-04T06:07:11;9.70;;;6.60;;
50309;SDS011;36207;51.850;21.698;2022-08-04T06:09:39;10.20;;;6.50;;
50309;SDS011;36207;51.850;21.698;2022-08-04T06:12:08;11.80;;;6.50;;
50309;SDS011;36207;51.850;21.698;2022-08-04T06:14:41;8.00;;;6.10;;
50309;SDS011;36207;51.850;21.698;2022-08-04T06:17:12;9.10;;;6.40;;
50309;SDS011;36207;51.850;21.698;2022-08-04T06:19:45;9.30;;;5.80;;
50309;SDS011;36207;51.850;21.698;2022-08-04T06:22:13;10.00;;;5.90;;
50309;SDS011;36207;51.850;21.698;2022-08-04T06:24:42;8.30;;;5.60;;
50309;SDS011;36207;51.850;21.698;2022-08-04T06:27:13;11.20;;;5.90;;
50309;SDS011;36207;51.850;21.698;2022-08-04T06:29:41;13.90;;;6.10;;
50309;SDS011;36207;51.850;21.698;2022-08-04T06:32:08;8.90;;;6.00;;
50309;SDS011;36207;51.850;21.698;2022-08-04T06:34:59;10.50;;;5.60;;
50309;SDS011;36207;51.850;21.698;2022-08-04T06:37:26;9.30;;;5.70;;
50309;SDS011;36207;51.850;21.698;2022-08-04T06:39:54;7.70;;;4.40;;
50309;SDS011;36207;51.850;21.698;2022-08-04T06:42:24;9.90;;;4.20;;
50309;SDS011;36207;51.850;21.698;2022-08-04T06:44:58;9.40;;;4.40;;
50309;SDS011;36207;51.850;21.698;2022-08-04T06:47:26;5.00;;;4.20;;
50309;SDS011;36207;51.850;21.698;2022-08-04T06:49:55;7.50;;;4.30;;
50309;SDS011;36207;51.850;21.698;2022-08-04T06:52:23;6.20;;;4.50;;
50309;SDS011;36207;51.850;21.698;2022-08-04T06:54:50;5.40;;;4.00;;
50309;SDS011;36207;51.850;21.698;2022-08-04T06:57:19;6.10;;;4.30;;
50309;SDS011;36207;51.850;21.698;2022-08-04T07:00:00;6.60;;;5.20;;
50309;SDS011;36207;51.850;21.698;2022-08-04T07:05:10;8.90;;;6.00;;
50309;SDS011;36207;51.850;21.698;2022-08-04T07:07:38;7.90;;;5.20;;
50309;SDS011;36207;51.850;21.698;2022-08-04T07:10:06;6.10;;;4.60;;
50309;SDS011;36207;51.850;21.698;2022-08-04T07:12:34;7.20;;;4.20;;
50309;SDS011;36207;51.850;21.698;2022-08-04T07:15:03;6.00;;;4.10;;
50309;SDS011;36207;51.850;21.698;2022-08-04T07:17:31;4.30;;;3.60;;
50309;SDS011;36207;51.850;21.698;2022-08-04T07:20:00;4.30;;;3.80;;
50309;SDS011;36207;51.850;21.698;2022-08-04T07:22:28;8.40;;;3.90;;
50309;SDS011;36207;51.850;21.698;2022-08-04T07:24:56;6.30;;;3.40;;
50309;SDS011;36207;51.850;21.698;2022-08-04T07:27:24;6.80;;;3.10;;
50309;SDS011;36207;51.850;21.698;2022-08-04T07:29:52;3.50;;;3.20;;
50309;SDS011;36207;51.850;21.698;2022-08-04T07:32:19;13.70;;;3.30;;
50309;SDS011;36207;51.850;21.698;2022-08-04T07:34:47;5.00;;;3.20;;
50309;SDS011;36207;51.850;21.698;2022-08-04T07:37:14;4.60;;;3.20;;
50309;SDS011;36207;51.850;21.698;2022-08-04T07:39:42;3.50;;;2.60;;
50309;SDS011;36207;51.850;21.698;2022-08-04T07:42:08;7.00;;;2.90;;
50309;SDS011;36207;51.850;21.698;2022-08-04T07:44:36;4.80;;;2.80;;
50309;SDS011;36207;51.850;21.698;2022-08-04T07:47:04;4.30;;;2.90;;
50309;SDS011;36207;51.850;21.698;2022-08-04T07:49:32;4.60;;;2.80;;
50309;SDS011;36207;51.850;21.698;2022-08-04T07:51:59;4.10;;;2.50;;
50309;SDS011;36207;51.850;21.698;2022-08-04T07:54:26;4.40;;;2.70;;
50309;SDS011;36207;51.850;21.698;2022-08-04T07:56:54;5.30;;;3.00;;
50309;SDS011;36207;51.850;21.698;2022-08-04T07:59:20;3.00;;;2.70;;
50309;SDS011;36207;51.850;21.698;2022-08-04T08:01:47;4.90;;;2.80;;
50309;SDS011;36207;51.850;21.698;2022-08-04T08:04:13;4.10;;;2.80;;
50309;SDS011;36207;51.850;21.698;2022-08-04T08:06:40;6.90;;;2.70;;
50309;SDS011;36207;51.850;21.698;2022-08-04T08:09:09;5.50;;;2.80;;
50309;SDS011;36207;51.850;21.698;2022-08-04T08:11:41;4.20;;;2.70;;
50309;SDS011;36207;51.850;21.698;2022-08-04T08:14:08;3.40;;;2.70;;
50309;SDS011;36207;51.850;21.698;2022-08-04T08:16:35;4.80;;;2.70;;
50309;SDS011;36207;51.850;21.698;2022-08-04T08:19:02;4.30;;;2.70;;
50309;SDS011;36207;51.850;21.698;2022-08-04T08:21:29;3.90;;;2.60;;
50309;SDS011;36207;51.850;21.698;2022-08-04T08:23:56;2.60;;;2.40;;
50309;SDS011;36207;51.850;21.698;2022-08-04T08:26:23;7.60;;;2.70;;
50309;SDS011;36207;51.850;21.698;2022-08-04T08:28:50;5.70;;;2.60;;
50309;SDS011;36207;51.850;21.698;2022-08-04T08:31:16;6.30;;;2.70;;
50309;SDS011;36207;51.850;21.698;2022-08-04T08:33:43;2.60;;;2.40;;
50309;SDS011;36207;51.850;21.698;2022-08-04T08:39:12;3.70;;;2.60;;
50309;SDS011;36207;51.850;21.698;2022-08-04T08:41:50;7.40;;;2.60;;
50309;SDS011;36207;51.850;21.698;2022-08-04T08:44:33;3.30;;;2.70;;
50309;SDS011;36207;51.850;21.698;2022-08-04T09:06:26;17.50;;;3.60;;
50309;SDS011;36207;51.850;21.698;2022-08-04T09:17:23;9.20;;;3.70;;
50309;SDS011;36207;51.850;21.698;2022-08-04T09:20:07;4.00;;;3.20;;
50309;SDS011;36207;51.850;21.698;2022-08-04T09:22:47;6.60;;;3.60;;
50309;SDS011;36207;51.850;21.698;2022-08-04T09:25:35;5.00;;;3.20;;
50309;SDS011;36207;51.850;21.698;2022-08-04T09:28:10;6.20;;;3.30;;
50309;SDS011;36207;51.850;21.698;2022-08-04T09:31:10;4.50;;;3.20;;
50309;SDS011;36207;51.850;21.698;2022-08-04T09:44:59;4.20;;;3.20;;
50309;SDS011;36207;51.850;21.698;2022-08-04T10:01:23;4.80;;;3.30;;
50309;SDS011;36207;51.850;21.698;2022-08-04T10:04:00;3.50;;;3.20;;
50309;SDS011;36207;51.850;21.698;2022-08-04T10:11:41;6.60;;;3.30;;
50309;SDS011;36207;51.850;21.698;2022-08-04T10:15:02;3.60;;;3.10;;
50309;SDS011;36207;51.850;21.698;2022-08-04T10:22:37;6.20;;;3.30;;
50309;SDS011;36207;51.850;21.698;2022-08-04T10:25:27;4.70;;;3.30;;
50309;SDS011;36207;51.850;21.698;2022-08-04T10:28:08;3.90;;;3.30;;
50309;SDS011;36207;51.850;21.698;2022-08-04T10:30:40;5.10;;;3.40;;
50309;SDS011;36207;51.850;21.698;2022-08-04T10:33:24;4.60;;;2.90;;
50309;SDS011;36207;51.850;21.698;2022-08-04T10:36:00;4.90;;;3.20;;
50309;SDS011;36207;51.850;21.698;2022-08-04T10:38:30;6.50;;;3.20;;
50309;SDS011;36207;51.850;21.698;2022-08-04T10:43:40;6.20;;;3.00;;
50309;SDS011;36207;51.850;21.698;2022-08-04T10:46:15;4.60;;;2.70;;
50309;SDS011;36207;51.850;21.698;2022-08-04T10:48:48;4.90;;;2.90;;
50309;SDS011;36207;51.850;21.698;2022-08-04T10:54:10;3.80;;;2.70;;
50309;SDS011;36207;51.850;21.698;2022-08-04T10:56:41;5.90;;;3.00;;
50309;SDS011;36207;51.850;21.698;2022-08-04T10:59:17;4.00;;;2.90;;
50309;SDS011;36207;51.850;21.698;2022-08-04T11:01:54;6.70;;;3.10;;
50309;SDS011;36207;51.850;21.698;2022-08-04T11:07:12;4.70;;;3.00;;
50309;SDS011;36207;51.850;21.698;2022-08-04T11:09:41;4.10;;;3.00;;
50309;SDS011;36207;51.850;21.698;2022-08-04T11:12:09;4.40;;;2.70;;
50309;SDS011;36207;51.850;21.698;2022-08-04T11:14:56;4.50;;;2.60;;
50309;SDS011;36207;51.850;21.698;2022-08-04T11:17:28;7.40;;;3.00;;
50309;SDS011;36207;51.850;21.698;2022-08-04T11:20:16;2.90;;;2.70;;
50309;SDS011;36207;51.850;21.698;2022-08-04T11:23:08;5.30;;;3.10;;
50309;SDS011;36207;51.850;21.698;2022-08-04T11:28:27;7.70;;;2.60;;
50309;SDS011;36207;51.850;21.698;2022-08-04T11:31:19;4.30;;;2.90;;
50309;SDS011;36207;51.850;21.698;2022-08-04T11:34:00;6.30;;;2.50;;
50309;SDS011;36207;51.850;21.698;2022-08-04T11:36:51;4.60;;;2.60;;
50309;SDS011;36207;51.850;21.698;2022-08-04T11:39:44;4.00;;;2.40;;
50309;SDS011;36207;51.850;21.698;2022-08-04T11:42:23;3.80;;;2.50;;
50309;SDS011;36207;51.850;21.698;2022-08-04T11:45:05;2.70;;;2.50;;
50309;SDS011;36207;51.850;21.698;2022-08-04T11:47:48;3.20;;;2.60;;
50309;SDS011;36207;51.850;21.698;2022-08-04T11:51:06;3.40;;;2.80;;
50309;SDS011;36207;51.850;21.698;2022-08-04T11:53:15;3.40;;;2.60;;
50309;SDS011;36207;51.850;21.698;2022-08-04T11:55:45;3.40;;;2.70;;
50309;SDS011;36207;51.850;21.698;2022-08-04T11:58:15;3.90;;;2.30;;
50309;SDS011;36207;51.850;21.698;2022-08-04T12:00:45;2.70;;;2.40;;
50309;SDS011;36207;51.850;21.698;2022-08-04T12:03:35;4.10;;;2.70;;
50309;SDS011;36207;51.850;21.698;2022-08-04T12:09:08;4.10;;;2.50;;
50309;SDS011;36207;51.850;21.698;2022-08-04T12:12:15;5.60;;;2.30;;
50309;SDS011;36207;51.850;21.698;2022-08-04T12:17:39;8.20;;;2.70;;
50309;SDS011;36207;51.850;21.698;2022-08-04T12:20:14;3.30;;;2.30;;
50309;SDS011;36207;51.850;21.698;2022-08-04T12:22:47;5.20;;;2.20;;
50309;SDS011;36207;51.850;21.698;2022-08-04T12:25:30;2.80;;;2.40;;
50309;SDS011;36207;51.850;21.698;2022-08-04T12:28:06;6.10;;;2.20;;
50309;SDS011;36207;51.850;21.698;2022-08-04T12:30:39;2.60;;;2.00;;
50309;SDS011;36207;51.850;21.698;2022-08-04T12:33:19;4.10;;;2.50;;
50309;SDS011;36207;51.850;21.698;2022-08-04T12:35:52;14.40;;;2.40;;
50309;SDS011;36207;51.850;21.698;2022-08-04T12:38:26;6.80;;;2.20;;
50309;SDS011;36207;51.850;21.698;2022-08-04T12:40:58;2.60;;;2.30;;
50309;SDS011;36207;51.850;21.698;2022-08-04T12:43:29;3.00;;;2.00;;
50309;SDS011;36207;51.850;21.698;2022-08-04T12:46:04;3.20;;;2.30;;
50309;SDS011;36207;51.850;21.698;2022-08-04T12:48:34;5.10;;;2.20;;
50309;SDS011;36207;51.850;21.698;2022-08-04T12:51:02;3.80;;;2.50;;
50309;SDS011;36207;51.850;21.698;2022-08-04T12:53:34;3.50;;;2.20;;
50309;SDS011;36207;51.850;21.698;2022-08-04T12:56:04;4.10;;;2.10;;
50309;SDS011;36207;51.850;21.698;2022-08-04T12:58:36;2.60;;;1.90;;
50309;SDS011;36207;51.850;21.698;2022-08-04T13:01:11;2.40;;;1.90;;
50309;SDS011;36207;51.850;21.698;2022-08-04T13:03:51;2.20;;;1.80;;
50309;SDS011;36207;51.850;21.698;2022-08-04T13:06:29;2.70;;;2.20;;
50309;SDS011;36207;51.850;21.698;2022-08-04T13:09:09;3.70;;;2.40;;
50309;SDS011;36207;51.850;21.698;2022-08-04T13:11:40;2.80;;;2.10;;
50309;SDS011;36207;51.850;21.698;2022-08-04T13:14:11;2.90;;;2.30;;
50309;SDS011;36207;51.850;21.698;2022-08-04T13:16:39;2.00;;;1.80;;
50309;SDS011;36207;51.850;21.698;2022-08-04T13:19:07;3.10;;;2.00;;
50309;SDS011;36207;51.850;21.698;2022-08-04T13:21:34;4.30;;;1.90;;
50309;SDS011;36207;51.850;21.698;2022-08-04T13:24:11;4.70;;;1.90;;
50309;SDS011;36207;51.850;21.698;2022-08-04T13:26:54;3.10;;;2.30;;
50309;SDS011;36207;51.850;21.698;2022-08-04T13:29:45;4.50;;;2.10;;
50309;SDS011;36207;51.850;21.698;2022-08-04T13:32:17;3.30;;;2.20;;
50309;SDS011;36207;51.850;21.698;2022-08-04T13:34:47;4.20;;;2.00;;
50309;SDS011;36207;51.850;21.698;2022-08-04T13:37:17;3.70;;;2.10;;
50309;SDS011;36207;51.850;21.698;2022-08-04T13:39:47;4.00;;;1.60;;
50309;SDS011;36207;51.850;21.698;2022-08-04T13:42:15;2.60;;;1.80;;
50309;SDS011;36207;51.850;21.698;2022-08-04T13:44:43;4.00;;;2.00;;
50309;SDS011;36207;51.850;21.698;2022-08-04T13:47:21;1.90;;;1.60;;
50309;SDS011;36207;51.850;21.698;2022-08-04T13:52:43;4.00;;;1.80;;
50309;SDS011;36207;51.850;21.698;2022-08-04T13:55:44;4.10;;;2.30;;
50309;SDS011;36207;51.850;21.698;2022-08-04T13:58:06;7.50;;;2.00;;
50309;SDS011;36207;51.850;21.698;2022-08-04T14:06:04;1.80;;;1.70;;
50309;SDS011;36207;51.850;21.698;2022-08-04T14:08:46;2.20;;;1.90;;
50309;SDS011;36207;51.850;21.698;2022-08-04T14:11:16;2.30;;;1.80;;
50309;SDS011;36207;51.850;21.698;2022-08-04T14:13:44;3.00;;;2.00;;
50309;SDS011;36207;51.850;21.698;2022-08-04T14:16:15;5.00;;;1.80;;
50309;SDS011;36207;51.850;21.698;2022-08-04T14:18:44;4.10;;;1.90;;
50309;SDS011;36207;51.850;21.698;2022-08-04T14:21:15;5.70;;;1.70;;
50309;SDS011;36207;51.850;21.698;2022-08-04T14:23:44;2.60;;;1.70;;
50309;SDS011;36207;51.850;21.698;2022-08-04T14:26:14;2.90;;;1.80;;
50309;SDS011;36207;51.850;21.698;2022-08-04T14:28:50;2.30;;;1.80;;
50309;SDS011;36207;51.850;21.698;2022-08-04T14:31:18;8.70;;;2.00;;
50309;SDS011;36207;51.850;21.698;2022-08-04T14:33:48;4.30;;;1.90;;
50309;SDS011;36207;51.850;21.698;2022-08-04T14:36:16;3.80;;;1.80;;
50309;SDS011;36207;51.850;21.698;2022-08-04T14:38:56;3.30;;;1.70;;
50309;SDS011;36207;51.850;21.698;2022-08-04T14:41:24;5.90;;;2.00;;
50309;SDS011;36207;51.850;21.698;2022-08-04T14:43:54;2.50;;;1.60;;
50309;SDS011;36207;51.850;21.698;2022-08-04T14:46:24;2.70;;;1.70;;
50309;SDS011;36207;51.850;21.698;2022-08-04T14:49:05;2.50;;;1.80;;
50309;SDS011;36207;51.850;21.698;2022-08-04T14:51:34;3.20;;;1.90;;
50309;SDS011;36207;51.850;21.698;2022-08-04T14:54:04;3.30;;;1.80;;
50309;SDS011;36207;51.850;21.698;2022-08-04T14:56:31;1.80;;;1.50;;
50309;SDS011;36207;51.850;21.698;2022-08-04T14:58:59;3.70;;;1.90;;
50309;SDS011;36207;51.850;21.698;2022-08-04T15:01:37;3.50;;;2.50;;
50309;SDS011;36207;51.850;21.698;2022-08-04T15:04:04;5.00;;;2.10;;
50309;SDS011;36207;51.850;21.698;2022-08-04T15:06:32;3.00;;;1.70;;
50309;SDS011;36207;51.850;21.698;2022-08-04T15:09:01;4.70;;;1.80;;
50309;SDS011;36207;51.850;21.698;2022-08-04T15:11:31;3.40;;;1.70;;
50309;SDS011;36207;51.850;21.698;2022-08-04T15:14:01;2.10;;;1.60;;
50309;SDS011;36207;51.850;21.698;2022-08-04T15:16:29;2.30;;;1.50;;
50309;SDS011;36207;51.850;21.698;2022-08-04T15:18:58;6.20;;;1.70;;
50309;SDS011;36207;51.850;21.698;2022-08-04T15:21:26;2.70;;;1.70;;
50309;SDS011;36207;51.850;21.698;2022-08-04T15:23:54;3.80;;;2.00;;
50309;SDS011;36207;51.850;21.698;2022-08-04T15:26:27;4.00;;;1.80;;
50309;SDS011;36207;51.850;21.698;2022-08-04T15:29:46;2.60;;;1.80;;
50309;SDS011;36207;51.850;21.698;2022-08-04T15:32:10;4.30;;;2.00;;
50309;SDS011;36207;51.850;21.698;2022-08-04T15:34:43;4.20;;;1.90;;
50309;SDS011;36207;51.850;21.698;2022-08-04T15:37:27;5.30;;;2.30;;
50309;SDS011;36207;51.850;21.698;2022-08-04T15:40:16;5.70;;;1.90;;
50309;SDS011;36207;51.850;21.698;2022-08-04T15:42:48;5.50;;;1.80;;
50309;SDS011;36207;51.850;21.698;2022-08-04T15:53:20;4.40;;;2.90;;
50309;SDS011;36207;51.850;21.698;2022-08-04T15:55:47;5.70;;;3.70;;
50309;SDS011;36207;51.850;21.698;2022-08-04T15:58:14;7.80;;;4.40;;
50309;SDS011;36207;51.850;21.698;2022-08-04T16:05:59;8.00;;;2.20;;
50309;SDS011;36207;51.850;21.698;2022-08-04T16:24:26;8.60;;;2.60;;
50309;SDS011;36207;51.850;21.698;2022-08-04T16:26:57;2.70;;;2.50;;
50309;SDS011;36207;51.850;21.698;2022-08-04T16:29:25;7.50;;;5.20;;
50309;SDS011;36207;51.850;21.698;2022-08-04T16:34:44;5.00;;;2.70;;
50309;SDS011;36207;51.850;21.698;2022-08-04T16:37:16;8.40;;;5.20;;
50309;SDS011;36207;51.850;21.698;2022-08-04T16:39:44;7.30;;;3.80;;
50309;SDS011;36207;51.850;21.698;2022-08-04T16:42:29;5.30;;;3.50;;
50309;SDS011;36207;51.850;21.698;2022-08-04T16:44:57;4.20;;;2.50;;
50309;SDS011;36207;51.850;21.698;2022-08-04T16:50:16;9.00;;;5.10;;
50309;SDS011;36207;51.850;21.698;2022-08-04T16:52:49;11.40;;;4.50;;
50309;SDS011;36207;51.850;21.698;2022-08-04T16:55:17;7.20;;;3.70;;
50309;SDS011;36207;51.850;21.698;2022-08-04T16:57:46;13.80;;;4.30;;
50309;SDS011;36207;51.850;21.698;2022-08-04T17:00:13;11.90;;;3.50;;
50309;SDS011;36207;51.850;21.698;2022-08-04T17:02:41;29.10;;;15.40;;
50309;SDS011;36207;51.850;21.698;2022-08-04T17:05:21;24.70;;;13.00;;
50309;SDS011;36207;51.850;21.698;2022-08-04T17:07:53;28.70;;;15.40;;
50309;SDS011;36207;51.850;21.698;2022-08-04T17:10:31;23.90;;;13.30;;
50309;SDS011;36207;51.850;21.698;2022-08-04T17:13:21;22.70;;;12.30;;
50309;SDS011;36207;51.850;21.698;2022-08-04T17:15:50;27.30;;;13.00;;
50309;SDS011;36207;51.850;21.698;2022-08-04T17:18:22;35.00;;;13.20;;
50309;SDS011;36207;51.850;21.698;2022-08-04T17:20:51;16.40;;;10.90;;
50309;SDS011;36207;51.850;21.698;2022-08-04T17:23:25;21.80;;;16.70;;
50309;SDS011;36207;51.850;21.698;2022-08-04T17:26:05;60.30;;;42.20;;
50309;SDS011;36207;51.850;21.698;2022-08-04T17:28:34;51.00;;;31.30;;
50309;SDS011;36207;51.850;21.698;2022-08-04T17:31:01;32.70;;;23.60;;
50309;SDS011;36207;51.850;21.698;2022-08-04T17:33:29;21.30;;;13.60;;
50309;SDS011;36207;51.850;21.698;2022-08-04T17:35:56;15.90;;;9.90;;
50309;SDS011;36207;51.850;21.698;2022-08-04T17:38:58;15.00;;;9.40;;
50309;SDS011;36207;51.850;21.698;2022-08-04T17:41:20;22.40;;;13.00;;
50309;SDS011;36207;51.850;21.698;2022-08-04T17:43:49;16.80;;;8.10;;
50309;SDS011;36207;51.850;21.698;2022-08-04T17:46:32;11.60;;;6.50;;
50309;SDS011;36207;51.850;21.698;2022-08-04T17:51:57;18.20;;;6.30;;
50309;SDS011;36207;51.850;21.698;2022-08-04T17:54:29;15.20;;;6.60;;
50309;SDS011;36207;51.850;21.698;2022-08-04T17:56:58;19.60;;;7.70;;
50309;SDS011;36207;51.850;21.698;2022-08-04T18:00:00;13.60;;;7.30;;
50309;SDS011;36207;51.850;21.698;2022-08-04T18:02:21;13.70;;;7.70;;
50309;SDS011;36207;51.850;21.698;2022-08-04T18:04:49;23.70;;;8.20;;
50309;SDS011;36207;51.850;21.698;2022-08-04T18:07:18;17.10;;;7.80;;
50309;SDS011;36207;51.850;21.698;2022-08-04T18:12:28;10.80;;;6.70;;
50309;SDS011;36207;51.850;21.698;2022-08-04T18:20:00;13.00;;;4.90;;
50309;SDS011;36207;51.850;21.698;2022-08-04T18:22:29;16.60;;;4.60;;
50309;SDS011;36207;51.850;21.698;2022-08-04T18:24:56;14.80;;;4.70;;
50309;SDS011;36207;51.850;21.698;2022-08-04T18:27:23;12.70;;;4.50;;
50309;SDS011;36207;51.850;21.698;2022-08-04T18:29:52;16.50;;;4.90;;
50309;SDS011;36207;51.850;21.698;2022-08-04T18:32:24;9.70;;;5.00;;
50309;SDS011;36207;51.850;21.698;2022-08-04T18:34:52;19.10;;;5.30;;
50309;SDS011;36207;51.850;21.698;2022-08-04T18:37:19;12.50;;;5.00;;
50309;SDS011;36207;51.850;21.698;2022-08-04T18:39:46;18.30;;;5.60;;
50309;SDS011;36207;51.850;21.698;2022-08-04T18:42:13;17.60;;;5.40;;
50309;SDS011;36207;51.850;21.698;2022-08-04T18:44:40;11.30;;;5.10;;
50309;SDS011;36207;51.850;21.698;2022-08-04T18:47:07;16.20;;;5.10;;
50309;SDS011;36207;51.850;21.698;2022-08-04T18:49:33;18.30;;;5.20;;
50309;SDS011;36207;51.850;21.698;2022-08-04T18:52:00;10.60;;;5.50;;
50309;SDS011;36207;51.850;21.698;2022-08-04T18:54:26;15.10;;;5.10;;
50309;SDS011;36207;51.850;21.698;2022-08-04T18:56:53;13.30;;;5.00;;
50309;SDS011;36207;51.850;21.698;2022-08-04T18:59:20;15.40;;;5.20;;
50309;SDS011;36207;51.850;21.698;2022-08-04T19:01:47;9.60;;;4.80;;
50309;SDS011;36207;51.850;21.698;2022-08-04T19:04:14;10.50;;;4.90;;
50309;SDS011;36207;51.850;21.698;2022-08-04T19:06:41;8.80;;;4.60;;
50309;SDS011;36207;51.850;21.698;2022-08-04T19:09:07;8.90;;;4.30;;
50309;SDS011;36207;51.850;21.698;2022-08-04T19:11:35;9.70;;;4.40;;
50309;SDS011;36207;51.850;21.698;2022-08-04T19:14:02;9.10;;;4.50;;
50309;SDS011;36207;51.850;21.698;2022-08-04T19:16:30;8.20;;;4.60;;
50309;SDS011;36207;51.850;21.698;2022-08-04T19:18:59;6.90;;;4.80;;
50309;SDS011;36207;51.850;21.698;2022-08-04T19:21:27;8.20;;;4.40;;
50309;SDS011;36207;51.850;21.698;2022-08-04T19:23:54;8.20;;;4.20;;
50309;SDS011;36207;51.850;21.698;2022-08-04T19:26:21;6.10;;;4.10;;
50309;SDS011;36207;51.850;21.698;2022-08-04T19:28:49;5.80;;;4.20;;
50309;SDS011;36207;51.850;21.698;2022-08-04T19:31:16;7.30;;;4.40;;
50309;SDS011;36207;51.850;21.698;2022-08-04T19:33:44;6.80;;;4.20;;
50309;SDS011;36207;51.850;21.698;2022-08-04T19:36:11;7.10;;;4.40;;
50309;SDS011;36207;51.850;21.698;2022-08-04T19:38:38;7.60;;;4.20;;
50309;SDS011;36207;51.850;21.698;2022-08-04T19:41:06;7.60;;;4.60;;
50309;SDS011;36207;51.850;21.698;2022-08-04T19:43:33;9.80;;;5.10;;
50309;SDS011;36207;51.850;21.698;2022-08-04T19:46:00;10.20;;;4.90;;